London/olympic Park South, United Kingdom

2:19 PM GMT on January 18, 2017 (GMT +0000)
Fairfield Road | | Change Station

Elev 32 ft 51.53 °N, 0.02 °W | Updated 9 minutes ago

Clear
Clear
39.6 °F
Feels Like 40 °F
N
0.0
Wind Variable Wind from North
Gusts 1.2 mph

Today
High -- | Low -- °F
--% Chance of Precip.
Yesterday
High -- | Low -- °F
Precip. -- in
Pressure 30.66 in
Visibility 6.2 miles
Clouds
Windchill 40 °F
Dew Point 32 °F
Humidity 74%
Rainfall 0.00 in
Snow Depth Not available.
7:56 AM 4:25 PM
Waning Gibbous, 63% visible
METAR EGLC 181350Z AUTO 12004KT 9999 NCD 05/M03 Q1038
Pressure 30.66 in
Visibility 6.2 miles
Clouds
Windchill 40 °F
Dew Point 32 °F
Humidity 74%
Rainfall 0.00 in
Snow Depth Not available.
7:56 AM 4:25 PM
Waning Gibbous, 63% visible
METAR EGLC 181350Z AUTO 12004KT 9999 NCD 05/M03 Q1038

Get Your Daily Forecast Email!

Thanks for signing up!

Be on the lookout for a verification email in your inbox.

You'll start receiving the daily forecast at 8 AM.

×

10-Day Weather Forecast

×

Almanac

Astronomy

Jan. 18, 2017 Rise Set
Actual Time
Civil Twilight
Nautical Twilight
Astronomical Twilight
Moon
Length of Visible Light
Length of Day
Tomorrow will be .
, % of the Moon is Illuminated

Today's Extremes

Country Highs Country Lows

Community

WunderPhotos

Upload Photos

1,962,540 photos uploaded!

WunderBlog® & News

Nearby

Air Quality

  Air Quality AQ Index Pollutant
Not available.

Snow Depth

Station Depth Elevation

Earthquake Activity

City Distance Mag. Time & Date
Minimum magnitude displayed is 2.5.

Coastal Water Temperatures

Place Temperature

Stations

Nearby Weather Stations

Station Location Temp. Windchill Dew Point Humidity Wind Precip. Elev Updated Type